Time;durP1;ratioP1;P1;durP2;ratioP2;P2;SDS_P1;SDS_P2;PMS_P1;PMS_P2;Temp;Humidity;BMP_temperature;BMP_pressure;BME280_temperature;BME280_humidity;BME280_pressure;Samples;Min_cycle;Max_cycle;Signal;HPM_P1;HPM_P2
2022/01/17 00:00:51;;;;;;;39.50;19.17;;;6.80;99.90;;;;;;5027436;28;20060;-69
2022/01/17 00:03:17;;;;;;;32.23;16.20;;;;;;;;;;5026070;28;20673;-69
2022/01/17 00:05:43;;;;;;;28.73;14.87;;;6.80;99.90;;;;;;5026299;28;20049;-69
2022/01/17 00:08:08;;;;;;;33.87;16.10;;;6.90;99.90;;;;;;5009807;28;20478;-69
2022/01/17 00:10:34;;;;;;;23.60;14.73;;;6.70;99.90;;;;;;5026902;28;20041;-69
2022/01/17 00:12:59;;;;;;;37.30;18.20;;;6.80;99.90;;;;;;5027365;28;20025;-69
2022/01/17 00:15:40;;;;;;;34.20;19.73;;;7.60;99.90;;;;;;5027069;28;20045;-69
2022/01/17 00:20:37;;;;;;;32.80;18.63;;;7.20;99.90;;;;;;5027328;28;20113;-69
2022/01/17 00:23:03;;;;;;;34.70;18.63;;;6.80;99.90;;;;;;5026909;28;20494;-69
2022/01/17 00:25:28;;;;;;;28.70;19.10;;;6.70;99.90;;;;;;5027120;28;20045;-69
2022/01/17 00:27:54;;;;;;;38.10;19.63;;;6.70;99.90;;;;;;5027124;28;20120;-70
2022/01/17 00:30:19;;;;;;;41.07;19.17;;;6.40;99.90;;;;;;5027783;28;20095;-69
2022/01/17 00:32:45;;;;;;;41.97;19.83;;;6.70;99.90;;;;;;5026878;28;20034;-69
2022/01/17 00:35:11;;;;;;;28.27;18.30;;;6.60;99.90;;;;;;5027724;28;20025;-69
2022/01/17 00:37:37;;;;;;;36.53;18.53;;;7.00;99.90;;;;;;5026420;28;20026;-69
2022/01/17 00:40:03;;;;;;;33.73;18.97;;;6.60;99.90;;;;;;5027279;28;20544;-70
2022/01/17 00:42:29;;;;;;;33.50;19.10;;;6.60;99.90;;;;;;5008955;28;20418;-68
2022/01/17 00:44:54;;;;;;;33.17;16.67;;;6.60;99.90;;;;;;5027340;28;20033;-68
2022/01/17 00:47:20;;;;;;;34.30;16.47;;;6.60;99.90;;;;;;5027784;28;20053;-68
2022/01/17 00:49:46;;;;;;;32.37;16.27;;;;;;;;;;5026620;28;20080;-68
2022/01/17 00:52:11;;;;;;;29.17;15.47;;;6.70;99.90;;;;;;5027195;28;20032;-68
2022/01/17 00:54:37;;;;;;;26.07;14.03;;;7.00;99.90;;;;;;5027057;28;20104;-68
2022/01/17 00:57:03;;;;;;;29.93;12.17;;;6.80;99.90;;;;;;5027359;28;20409;-68
2022/01/17 00:59:29;;;;;;;32.77;14.60;;;6.80;99.90;;;;;;5027063;28;20045;-68
2022/01/17 01:01:55;;;;;;;24.03;12.40;;;;;;;;;;5027415;28;20087;-68
2022/01/17 01:04:21;;;;;;;21.40;11.50;;;;;;;;;;5027496;28;20026;-68
2022/01/17 01:06:46;;;;;;;25.40;9.97;;;6.80;99.90;;;;;;5026373;28;20133;-68
2022/01/17 01:09:12;;;;;;;19.60;8.47;;;6.80;99.90;;;;;;5027563;28;20104;-69
2022/01/17 01:11:37;;;;;;;26.43;7.03;;;6.70;99.90;;;;;;5026956;28;20370;-68
2022/01/17 01:14:04;;;;;;;14.97;6.50;;;6.80;99.90;;;;;;5027190;28;20060;-68
2022/01/17 01:16:35;;;;;;;12.50;5.43;;;6.60;99.90;;;;;;5026773;28;20386;-68
2022/01/17 01:21:59;;;;;;;18.67;3.93;;;6.80;99.90;;;;;;5029984;28;20033;-69
2022/01/17 01:29:57;;;;;;;11.02;2.97;;;6.70;99.90;;;;;;5031025;28;20025;-68
2022/01/17 01:32:28;;;;;;;18.90;4.07;;;6.80;99.90;;;;;;5030211;28;20057;-69
2022/01/17 01:34:57;;;;;;;12.10;2.10;;;;;;;;;;5030497;28;20112;-68
2022/01/17 01:37:23;;;;;;;17.87;2.83;;;;;;;;;;5028528;28;20455;-68
2022/01/17 01:39:51;;;;;;;16.07;2.47;;;6.60;99.90;;;;;;5029035;28;20041;-68
2022/01/17 01:42:18;;;;;;;16.17;2.20;;;6.70;99.90;;;;;;5030793;28;20025;-69
2022/01/17 01:44:47;;;;;;;16.93;3.03;;;6.60;99.90;;;;;;5029923;28;20360;-68
2022/01/17 01:47:13;;;;;;;12.73;2.90;;;;;;;;;;5030326;28;20034;-69
2022/01/17 01:49:39;;;;;;;14.90;2.30;;;;;;;;;;5029556;28;20050;-68
2022/01/17 01:52:05;;;;;;;16.13;2.80;;;6.60;99.90;;;;;;5030153;28;20108;-69
2022/01/17 01:54:31;;;;;;;13.00;2.67;;;;;;;;;;5012120;28;20018;-70
2022/01/17 01:56:57;;;;;;;12.57;2.60;;;6.60;99.90;;;;;;5030472;28;20059;-68
2022/01/17 01:59:24;;;;;;;19.67;3.07;;;;;;;;;;5030264;28;20025;-68
2022/01/17 02:01:50;;;;;;;15.80;3.03;;;;;;;;;;5030117;28;20486;-68
2022/01/17 02:04:16;;;;;;;15.47;2.90;;;6.40;99.90;;;;;;5029013;28;20133;-69
2022/01/17 02:06:42;;;;;;;11.57;2.97;;;6.30;99.90;;;;;;5029259;28;20384;-69
2022/01/17 02:09:07;;;;;;;19.47;4.27;;;6.70;99.90;;;;;;5030357;28;20060;-68
2022/01/17 02:11:34;;;;;;;17.73;3.33;;;6.30;99.90;;;;;;5029752;28;20036;-69
2022/01/17 02:14:00;;;;;;;8.33;2.30;;;6.30;99.90;;;;;;5030106;28;20535;-68
2022/01/17 02:16:26;;;;;;;11.10;2.10;;;6.30;99.90;;;;;;5029855;28;20525;-68
2022/01/17 02:18:52;;;;;;;13.10;3.73;;;6.20;99.90;;;;;;5029679;28;20026;-68
2022/01/17 02:21:30;;;;;;;12.57;2.10;;;6.20;99.90;;;;;;5029839;28;20474;-68
2022/01/17 02:23:57;;;;;;;12.33;2.63;;;6.20;99.90;;;;;;5029965;28;20375;-68
2022/01/17 02:26:22;;;;;;;12.93;1.80;;;;;;;;;;5029857;28;20095;-68
2022/01/17 02:28:54;;;;;;;16.70;2.97;;;6.20;99.90;;;;;;5028771;28;20108;-68
2022/01/17 02:31:21;;;;;;;14.87;2.87;;;6.10;99.90;;;;;;5029915;28;20029;-68
2022/01/17 02:33:49;;;;;;;13.33;1.67;;;;;;;;;;5028690;28;20030;-69
2022/01/17 02:36:15;;;;;;;12.87;2.13;;;6.10;99.90;;;;;;5029911;28;20035;-68
2022/01/17 02:38:41;;;;;;;15.83;3.00;;;6.10;99.90;;;;;;5029172;28;20105;-68
2022/01/17 02:41:07;;;;;;;9.97;1.80;;;6.20;99.90;;;;;;5024352;28;20037;-68
2022/01/17 02:43:34;;;;;;;13.20;2.67;;;5.90;99.90;;;;;;5009266;28;20049;-68
2022/01/17 02:48:35;;;;;;;14.60;1.97;;;6.30;99.90;;;;;;5028562;28;20048;-68
2022/01/17 02:51:02;;;;;;;14.13;3.07;;;6.20;99.90;;;;;;5029455;28;20120;-67
2022/01/17 02:53:28;;;;;;;18.20;2.73;;;;;;;;;;5028811;28;20021;-67
2022/01/17 02:56:02;;;;;;;15.83;3.00;;;6.10;99.90;;;;;;5029387;28;20030;-67
2022/01/17 02:58:32;;;;;;;21.08;3.33;;;6.10;99.90;;;;;;5028761;28;20029;-68
2022/01/17 03:00:58;;;;;;;10.37;2.37;;;6.20;99.90;;;;;;5028720;28;20112;-68
2022/01/17 03:03:27;;;;;;;20.87;2.57;;;6.20;99.90;;;;;;5028505;28;20013;-67
2022/01/17 03:05:55;;;;;;;20.13;2.27;;;6.10;99.90;;;;;;5028818;28;20042;-67
2022/01/17 03:08:21;;;;;;;11.73;2.00;;;;;;;;;;5029354;28;20056;-67
2022/01/17 03:10:47;;;;;;;12.97;1.87;;;6.00;99.90;;;;;;5010722;28;20457;-67
2022/01/17 03:13:16;;;;;;;11.83;1.80;;;5.90;99.90;;;;;;5029225;28;20087;-67
2022/01/17 03:15:44;;;;;;;16.43;2.23;;;5.90;99.90;;;;;;5028060;28;20120;-67
2022/01/17 03:18:10;;;;;;;9.70;2.20;;;6.00;99.90;;;;;;5028564;28;20410;-67
2022/01/17 03:20:38;;;;;;;15.07;2.37;;;5.90;99.90;;;;;;5028353;28;20064;-67
2022/01/17 03:23:06;;;;;;;14.13;1.93;;;5.80;99.90;;;;;;5028726;28;20500;-67
2022/01/17 03:25:32;;;;;;;12.77;1.53;;;5.80;99.90;;;;;;5026759;28;20030;-67
2022/01/17 03:27:58;;;;;;;8.73;1.73;;;5.60;99.90;;;;;;5028468;28;20095;-67
2022/01/17 03:30:23;;;;;;;15.17;1.87;;;5.50;99.90;;;;;;5028032;28;20053;-67
2022/01/17 03:32:49;;;;;;;14.33;2.53;;;;;;;;;;5026425;28;20109;-67
2022/01/17 03:35:16;;;;;;;7.27;2.13;;;5.40;99.90;;;;;;5026667;28;20032;-67
2022/01/17 03:37:42;;;;;;;10.57;1.77;;;5.40;99.90;;;;;;5026121;28;20033;-67
2022/01/17 03:40:08;;;;;;;13.93;1.33;;;;;;;;;;5026164;28;20033;-66
2022/01/17 03:42:35;;;;;;;12.43;1.60;;;;;;;;;;5024018;28;20041;-67
2022/01/17 03:45:03;;;;;;;13.67;2.07;;;;;;;;;;5025198;28;20086;-67
2022/01/17 03:47:30;;;;;;;12.93;2.80;;;;;;;;;;5023533;28;20041;-67
2022/01/17 03:49:55;;;;;;;19.53;3.50;;;4.90;99.90;;;;;;5024828;28;20061;-67
2022/01/17 03:52:21;;;;;;;12.20;2.17;;;;;;;;;;5027598;28;20036;-67
2022/01/17 03:54:47;;;;;;;13.97;1.77;;;4.90;99.90;;;;;;5027553;28;20033;-67
2022/01/17 03:57:13;;;;;;;6.67;1.77;;;;;;;;;;5028369;28;20041;-67
2022/01/17 03:59:38;;;;;;;15.00;1.80;;;4.80;99.90;;;;;;5026742;28;20025;-67
2022/01/17 04:02:04;;;;;;;11.33;1.73;;;;;;;;;;5027424;28;20096;-67
2022/01/17 04:04:30;;;;;;;11.20;1.70;;;4.70;99.90;;;;;;5027515;28;20029;-67
2022/01/17 04:06:56;;;;;;;5.97;1.60;;;;;;;;;;5027732;28;20029;-67
2022/01/17 04:09:22;;;;;;;12.00;1.60;;;;;;;;;;5028057;28;20103;-66
2022/01/17 04:11:48;;;;;;;16.63;2.93;;;;;;;;;;5027444;28;20508;-66
2022/01/17 04:14:16;;;;;;;12.83;1.80;;;4.50;99.90;;;;;;5028056;28;20029;-66
2022/01/17 04:16:41;;;;;;;9.67;1.90;;;4.70;99.90;;;;;;5026524;28;20029;-66
2022/01/17 04:19:09;;;;;;;8.10;1.63;;;;;;;;;;5027890;28;20056;-66
2022/01/17 04:21:35;;;;;;;13.73;1.97;;;4.50;99.90;;;;;;5026876;28;20434;-66
2022/01/17 04:24:01;;;;;;;13.60;2.43;;;4.50;99.90;;;;;;5027754;28;20167;-66
2022/01/17 04:26:27;;;;;;;11.67;2.30;;;;;;;;;;5027609;28;20116;-66
2022/01/17 04:28:53;;;;;;;11.13;1.50;;;;;;;;;;5027819;28;20056;-66
2022/01/17 04:31:19;;;;;;;14.47;3.03;;;4.60;99.90;;;;;;5009630;28;20180;-66
2022/01/17 04:33:45;;;;;;;18.13;1.83;;;;;;;;;;5027346;28;20045;-66
2022/01/17 04:36:10;;;;;;;20.20;2.83;;;4.70;99.90;;;;;;5027686;28;20026;-66
2022/01/17 04:38:36;;;;;;;14.77;2.23;;;;;;;;;;5027096;28;20029;-66
2022/01/17 04:41:11;;;;;;;13.87;2.80;;;4.70;99.90;;;;;;5027739;28;20029;-67
2022/01/17 04:46:07;;;;;;;9.17;1.53;;;4.90;99.90;;;;;;5026838;28;20494;-66
2022/01/17 04:48:33;;;;;;;12.93;2.50;;;4.90;99.90;;;;;;5026613;28;20036;-66
2022/01/17 04:50:59;;;;;;;15.07;2.20;;;4.80;99.90;;;;;;5027423;28;20057;-66
2022/01/17 04:53:28;;;;;;;11.03;1.60;;;5.00;99.90;;;;;;5029611;28;20363;-66
2022/01/17 04:55:54;;;;;;;10.37;1.97;;;5.00;99.90;;;;;;5013501;28;20105;-66
2022/01/17 04:58:20;;;;;;;14.93;2.70;;;5.00;99.90;;;;;;5031536;28;20026;-67
2022/01/17 05:00:46;;;;;;;8.57;1.43;;;5.00;99.90;;;;;;5030223;28;20099;-67
2022/01/17 05:03:15;;;;;;;21.97;2.47;;;4.90;99.90;;;;;;5031052;28;20474;-67
2022/01/17 05:05:41;;;;;;;9.27;1.40;;;;;;;;;;5030503;28;20535;-67
2022/01/17 05:08:07;;;;;;;10.00;1.83;;;5.00;99.90;;;;;;5031299;28;20098;-67
2022/01/17 05:10:33;;;;;;;13.50;2.97;;;;;;;;;;5030439;28;20100;-67
2022/01/17 05:12:59;;;;;;;9.83;2.10;;;4.90;99.90;;;;;;5030857;28;20109;-67
2022/01/17 05:15:49;;;;;;;15.17;2.70;;;;;;;;;;5029904;28;20426;-67
2022/01/17 05:19:47;;;;;;;12.97;1.93;;;4.70;99.90;;;;;;5026619;28;20033;-67
2022/01/17 05:20:59;;;;;;;10.33;1.37;;;;;;;;;;5030379;28;20045;-67
2022/01/17 05:23:25;;;;;;;8.60;1.70;;;4.60;99.90;;;;;;5030395;28;20045;-67
2022/01/17 05:25:51;;;;;;;15.07;2.73;;;;;;;;;;5029980;28;20041;-67
2022/01/17 05:28:16;;;;;;;13.40;2.33;;;4.50;99.90;;;;;;5030365;28;20021;-67
2022/01/17 05:30:42;;;;;;;13.47;2.10;;;;;;;;;;5029834;28;20333;-67
2022/01/17 05:33:08;;;;;;;14.00;2.30;;;4.50;99.90;;;;;;5030758;28;20376;-67
2022/01/17 05:35:34;;;;;;;10.93;2.17;;;4.70;99.90;;;;;;5030083;28;20026;-67
2022/01/17 05:37:59;;;;;;;9.43;1.77;;;4.50;99.90;;;;;;5030534;28;20120;-67
2022/01/17 05:40:25;;;;;;;11.20;2.30;;;4.40;99.90;;;;;;5030176;28;20032;-67
2022/01/17 05:42:51;;;;;;;14.00;3.10;;;4.50;99.90;;;;;;5029384;28;20255;-67
2022/01/17 05:45:17;;;;;;;8.37;2.63;;;4.40;99.90;;;;;;5030154;28;20051;-67
2022/01/17 05:47:44;;;;;;;16.73;3.63;;;4.30;99.90;;;;;;5029704;28;20045;-67
2022/01/17 05:50:10;;;;;;;13.83;3.90;;;4.40;99.90;;;;;;5030077;28;20112;-67
2022/01/17 05:52:36;;;;;;;8.53;3.27;;;4.20;99.90;;;;;;5029779;28;20079;-67
2022/01/17 05:55:03;;;;;;;16.30;3.40;;;4.30;99.90;;;;;;5030049;28;20025;-68
2022/01/17 05:57:28;;;;;;;9.83;3.70;;;4.30;99.90;;;;;;5029019;28;20049;-67
2022/01/17 05:59:54;;;;;;;9.83;3.80;;;4.20;99.90;;;;;;5030291;28;20049;-67
2022/01/17 06:02:20;;;;;;;17.97;4.97;;;4.10;99.90;;;;;;5030184;28;20068;-67
2022/01/17 06:04:46;;;;;;;15.50;4.90;;;;;;;;;;5027366;28;20029;-67
2022/01/17 06:07:12;;;;;;;12.70;5.27;;;4.10;99.90;;;;;;5030192;28;20068;-68
2022/01/17 06:09:37;;;;;;;21.43;5.50;;;4.30;99.90;;;;;;5029100;28;20034;-67
2022/01/17 06:12:03;;;;;;;15.83;6.73;;;4.20;99.90;;;;;;5011669;28;20465;-68
2022/01/17 06:14:31;;;;;;;20.63;6.87;;;;;;;;;;5029255;28;20041;-67
2022/01/17 06:16:56;;;;;;;16.10;6.97;;;4.00;99.90;;;;;;5029624;28;20025;-67
2022/01/17 06:19:22;;;;;;;20.73;8.27;;;;;;;;;;5029814;28;20386;-67
2022/01/17 06:21:48;;;;;;;17.97;8.90;;;;;;;;;;5029567;28;20079;-68
2022/01/17 06:24:14;;;;;;;18.30;10.10;;;4.10;99.90;;;;;;5030393;28;20029;-68
2022/01/17 06:26:41;;;;;;;26.70;10.93;;;4.10;99.90;;;;;;5028635;28;20069;-68
2022/01/17 06:29:08;;;;;;;27.60;11.10;;;4.20;99.90;;;;;;5029608;28;20124;-68
2022/01/17 06:31:35;;;;;;;21.80;10.67;;;4.00;99.90;;;;;;5029030;28;20030;-68
2022/01/17 06:34:01;;;;;;;24.70;12.40;;;4.20;99.90;;;;;;5011863;28;20051;-68
2022/01/17 06:36:27;;;;;;;27.33;12.73;;;;;;;;;;5028573;28;20030;-68
2022/01/17 06:38:52;;;;;;;27.87;13.37;;;3.90;99.90;;;;;;5028325;28;20037;-68
2022/01/17 06:41:19;;;;;;;19.97;12.60;;;4.00;99.90;;;;;;5007729;28;20093;-68
2022/01/17 06:43:45;;;;;;;26.43;14.43;;;4.30;99.90;;;;;;4991220;28;20026;-68
2022/01/17 06:46:11;;;;;;;28.83;17.27;;;4.20;99.90;;;;;;5023946;28;20033;-68
2022/01/17 06:48:37;;;;;;;28.80;14.70;;;;;;;;;;5028551;28;20451;-68
2022/01/17 06:51:02;;;;;;;24.80;15.53;;;4.10;99.90;;;;;;5029294;28;20033;-68
2022/01/17 06:53:29;;;;;;;27.93;15.43;;;;;;;;;;5010860;28;20468;-68
2022/01/17 06:55:55;;;;;;;27.07;15.07;;;;;;;;;;5028576;28;20473;-68
2022/01/17 06:58:22;;;;;;;30.40;15.70;;;4.20;99.90;;;;;;5029408;28;20045;-68
2022/01/17 07:00:48;;;;;;;27.10;14.73;;;4.30;99.90;;;;;;5028593;28;20032;-68
2022/01/17 07:03:14;;;;;;;26.43;15.37;;;4.40;99.90;;;;;;5011388;28;20021;-68
2022/01/17 07:05:40;;;;;;;32.07;19.17;;;4.50;99.90;;;;;;5028229;28;20025;-68
2022/01/17 07:08:06;;;;;;;29.00;15.93;;;;;;;;;;5028538;28;20033;-68
2022/01/17 07:10:31;;;;;;;23.70;17.33;;;4.50;99.90;;;;;;5028125;28;20045;-69
2022/01/17 07:12:57;;;;;;;33.87;17.13;;;4.60;99.90;;;;;;5028624;28;20100;-68
2022/01/17 07:15:23;;;;;;;31.63;17.43;;;;;;;;;;5028064;28;20025;-68
2022/01/17 07:17:48;;;;;;;32.50;17.93;;;4.80;99.90;;;;;;5028352;28;20025;-68
2022/01/17 07:20:14;;;;;;;32.73;18.97;;;4.90;99.90;;;;;;5028745;28;20030;-68
2022/01/17 07:22:40;;;;;;;32.93;19.60;;;4.90;99.90;;;;;;5027940;28;20029;-68
2022/01/17 07:25:06;;;;;;;41.17;20.50;;;4.90;99.90;;;;;;5028223;28;20041;-68
2022/01/17 07:27:32;;;;;;;34.53;18.60;;;;;;;;;;5027737;28;20107;-67
2022/01/17 07:29:57;;;;;;;36.37;21.33;;;5.10;99.90;;;;;;5028193;28;20470;-67
2022/01/17 07:32:24;;;;;;;41.63;21.80;;;4.90;99.90;;;;;;5027961;28;20571;-68
2022/01/17 07:34:52;;;;;;;36.23;21.00;;;;;;;;;;5027754;28;20044;-68
2022/01/17 07:37:18;;;;;;;35.20;20.73;;;5.00;99.90;;;;;;5028195;28;20041;-68
2022/01/17 07:39:43;;;;;;;37.87;20.63;;;4.70;99.90;;;;;;5026357;28;20026;-68
2022/01/17 07:42:10;;;;;;;37.03;23.13;;;;;;;;;;5028206;28;20033;-68
2022/01/17 07:44:37;;;;;;;32.57;20.80;;;5.50;99.90;;;;;;5027857;28;20021;-68
2022/01/17 07:47:05;;;;;;;40.40;22.37;;;5.10;99.90;;;;;;5027903;28;20383;-68
2022/01/17 07:49:30;;;;;;;44.93;24.30;;;;;;;;;;5027133;28;20041;-68
2022/01/17 07:51:59;;;;;;;40.40;23.07;;;5.10;99.90;;;;;;5026805;28;20035;-68
2022/01/17 07:54:27;;;;;;;41.90;23.33;;;5.30;99.90;;;;;;5026287;28;20025;-68
2022/01/17 07:56:52;;;;;;;42.30;24.37;;;5.40;99.90;;;;;;5023801;28;20022;-68
2022/01/17 07:59:19;;;;;;;51.13;24.93;;;5.50;99.90;;;;;;5026312;28;20091;-67
2022/01/17 08:01:44;;;;;;;48.07;23.70;;;;;;;;;;5025743;28;20061;-68
2022/01/17 08:04:11;;;;;;;42.23;23.70;;;5.30;99.90;;;;;;5026781;28;20063;-68
2022/01/17 08:06:39;;;;;;;44.63;25.43;;;5.30;99.90;;;;;;5026245;28;20117;-68
2022/01/17 08:09:08;;;;;;;43.93;24.20;;;6.50;99.90;;;;;;5027062;28;20112;-69
2022/01/17 08:11:34;;;;;;;43.57;25.00;;;5.60;99.90;;;;;;5025282;28;20065;-68
2022/01/17 08:13:59;;;;;;;43.93;26.07;;;5.30;99.90;;;;;;5007139;28;20052;-68
2022/01/17 08:16:25;;;;;;;46.67;24.23;;;5.70;99.90;;;;;;5007508;28;20034;-69
2022/01/17 08:18:52;;;;;;;47.27;26.63;;;5.50;99.90;;;;;;5011729;28;20030;-68
2022/01/17 08:21:18;;;;;;;40.20;26.30;;;;;;;;;;5011532;28;20121;-69
2022/01/17 08:23:43;;;;;;;49.30;27.00;;;5.70;99.90;;;;;;5014351;28;20100;-69
2022/01/17 08:26:09;;;;;;;52.60;26.17;;;5.70;99.90;;;;;;5027538;28;20052;-69
2022/01/17 08:28:35;;;;;;;55.93;26.87;;;;;;;;;;5011827;28;20349;-69
2022/01/17 08:31:00;;;;;;;47.13;21.87;;;5.60;99.90;;;;;;5031263;28;20041;-68
2022/01/17 08:33:26;;;;;;;40.03;21.97;;;;;;;;;;5013015;28;20041;-68
2022/01/17 08:35:52;;;;;;;42.30;21.83;;;6.00;99.90;;;;;;5031097;28;20026;-68
2022/01/17 08:38:17;;;;;;;42.30;22.83;;;5.50;99.90;;;;;;5031062;28;20022;-69
2022/01/17 08:40:43;;;;;;;40.67;21.00;;;;;;;;;;5030860;28;20125;-68
2022/01/17 08:43:09;;;;;;;36.57;20.77;;;5.80;99.90;;;;;;5031437;28;20049;-68
2022/01/17 08:45:34;;;;;;;43.70;21.77;;;5.90;99.90;;;;;;5030392;28;20497;-68
2022/01/17 08:48:00;;;;;;;35.40;19.77;;;5.60;99.90;;;;;;5030158;28;20048;-68
2022/01/17 08:50:27;;;;;;;38.50;20.97;;;6.00;99.90;;;;;;5030192;28;20049;-69
2022/01/17 08:52:52;;;;;;;42.17;22.00;;;6.00;99.90;;;;;;5029904;28;20032;-69
2022/01/17 08:55:21;;;;;;;40.33;18.87;;;5.90;99.90;;;;;;5013550;28;20028;-69
2022/01/17 08:57:47;;;;;;;40.97;19.23;;;5.90;99.90;;;;;;5012985;28;20029;-69
2022/01/17 09:00:17;;;;;;;41.07;18.90;;;6.00;99.90;;;;;;5027578;28;20034;-68
2022/01/17 09:02:43;;;;;;;39.43;18.47;;;;;;;;;;5020982;28;20086;-68
2022/01/17 09:05:09;;;;;;;44.80;18.90;;;6.10;99.90;;;;;;5030318;28;20734;-69
2022/01/17 09:07:35;;;;;;;40.10;19.13;;;;;;;;;;5012418;28;20033;-69
2022/01/17 09:10:00;;;;;;;45.30;17.67;;;6.10;99.90;;;;;;5030588;28;20056;-68
2022/01/17 09:12:26;;;;;;;33.37;17.30;;;6.10;99.90;;;;;;5029919;28;20038;-68
2022/01/17 09:14:52;;;;;;;40.10;18.07;;;6.30;99.90;;;;;;5012365;28;20029;-69
2022/01/17 09:17:17;;;;;;;41.47;18.37;;;6.20;99.90;;;;;;5029898;28;20039;-68
2022/01/17 09:19:44;;;;;;;40.23;16.17;;;6.10;99.90;;;;;;5029194;28;20112;-68
2022/01/17 09:22:10;;;;;;;32.70;15.50;;;6.20;99.90;;;;;;5027560;28;20064;-69
2022/01/17 09:24:37;;;;;;;34.13;16.57;;;6.10;99.90;;;;;;5029709;28;20014;-69
2022/01/17 09:27:05;;;;;;;36.43;16.83;;;6.40;99.90;;;;;;5029935;28;20443;-68
2022/01/17 09:29:31;;;;;;;37.47;16.63;;;6.20;99.90;;;;;;5029858;28;20022;-68
2022/01/17 09:31:57;;;;;;;37.40;16.10;;;6.40;99.90;;;;;;5028688;28;20029;-68
2022/01/17 09:34:23;;;;;;;36.67;15.77;;;;;;;;;;5028153;28;20052;-69
2022/01/17 09:36:49;;;;;;;32.30;15.40;;;6.50;99.90;;;;;;5024079;28;20131;-69
2022/01/17 09:39:14;;;;;;;27.30;13.60;;;6.30;99.90;;;;;;5021961;28;20029;-68
2022/01/17 09:41:41;;;;;;;39.63;15.33;;;6.50;99.90;;;;;;5015980;28;20474;-68
2022/01/17 09:44:09;;;;;;;37.50;15.73;;;6.40;99.90;;;;;;5030250;28;20041;-69
2022/01/17 09:46:39;;;;;;;37.80;15.00;;;7.10;99.90;;;;;;5010775;28;20148;-68
2022/01/17 09:54:29;;;;;;;28.80;12.93;;;6.60;99.90;;;;;;5028488;28;20029;-67
2022/01/17 09:56:56;;;;;;;31.90;13.00;;;6.60;99.90;;;;;;5025438;28;20033;-68
2022/01/17 09:59:22;;;;;;;30.60;12.43;;;;;;;;;;5029170;28;20144;-67
2022/01/17 10:01:48;;;;;;;31.90;13.77;;;;;;;;;;5028505;28;20552;-67
2022/01/17 10:04:16;;;;;;;31.80;12.70;;;;;;;;;;5027520;28;20025;-67
2022/01/17 10:06:43;;;;;;;28.40;11.37;;;6.80;99.90;;;;;;5023068;28;20038;-66
2022/01/17 10:09:17;;;;;;;26.33;10.30;;;7.00;99.90;;;;;;5029236;28;20037;-67
2022/01/17 10:12:04;;;;;;;28.27;12.10;;;6.70;99.90;;;;;;5029118;28;20061;-67
2022/01/17 10:14:59;;;;;;;34.13;10.50;;;6.90;99.90;;;;;;5029012;28;20025;-67
2022/01/17 10:17:41;;;;;;;32.93;10.47;;;7.30;99.90;;;;;;5028617;28;20018;-66
2022/01/17 10:20:08;;;;;;;26.23;11.03;;;6.80;99.90;;;;;;5009883;28;20030;-67
2022/01/17 10:22:44;;;;;;;30.17;8.83;;;7.10;99.90;;;;;;5009047;28;20065;-66
2022/01/17 10:25:40;;;;;;;28.37;9.00;;;7.40;99.90;;;;;;5009722;28;20108;-67
2022/01/17 10:31:32;;;;;;;23.90;8.70;;;;;;;;;;5028877;28;20350;-67
2022/01/17 10:36:48;;;;;;;28.57;8.43;;;7.10;99.90;;;;;;5026046;28;20421;-67
2022/01/17 10:39:14;;;;;;;24.05;9.15;;;7.00;99.90;;;;;;5009772;28;20026;-66
2022/01/17 10:41:40;;;;;;;27.80;7.97;;;7.00;99.90;;;;;;5008943;28;20030;-69
2022/01/17 10:44:06;;;;;;;26.07;9.23;;;7.10;99.90;;;;;;5008997;28;20443;-67
2022/01/17 10:46:32;;;;;;;25.43;9.27;;;;;;;;;;5012959;28;20033;-67
2022/01/17 10:48:58;;;;;;;24.40;7.83;;;7.10;99.90;;;;;;5028551;28;20056;-67
2022/01/17 10:51:33;;;;;;;30.30;8.37;;;7.20;99.90;;;;;;5027549;28;20036;-68
2022/01/17 10:53:58;;;;;;;;;;;7.30;99.90;;;;;;5024091;28;20105;-68
2022/01/17 10:56:25;;;;;;;24.90;7.53;;;7.30;99.90;;;;;;5027879;28;20035;-68
2022/01/17 10:59:02;;;;;;;28.20;8.53;;;7.40;99.90;;;;;;5027543;28;20021;-67
2022/01/17 11:01:36;;;;;;;23.23;7.07;;;7.20;99.90;;;;;;5026798;28;20076;-67
2022/01/17 11:04:08;;;;;;;32.38;7.72;;;7.30;99.90;;;;;;5027890;28;20026;-67
2022/01/17 11:06:46;;;;;;;28.67;8.23;;;7.40;99.90;;;;;;5026440;28;20042;-68
2022/01/17 11:09:12;;;;;;;25.90;6.63;;;7.50;99.90;;;;;;5028852;28;20056;-67
2022/01/17 11:11:39;;;;;;;31.87;7.50;;;7.80;99.90;;;;;;5028405;28;20060;-67
2022/01/17 11:14:09;;;;;;;19.97;7.13;;;7.60;99.90;;;;;;5028118;28;20285;-67
2022/01/17 11:16:36;;;;;;;24.43;6.77;;;;;;;;;;5027537;28;20025;-70
2022/01/17 11:20:01;;;;;;;19.60;6.23;;;7.80;99.90;;;;;;5028539;28;20017;-68
2022/01/17 11:21:49;;;;;;;29.53;7.90;;;7.60;99.90;;;;;;5007972;28;20088;-68
2022/01/17 11:24:16;;;;;;;25.23;7.40;;;7.60;99.90;;;;;;5012328;28;20390;-67
2022/01/17 11:26:42;;;;;;;34.00;7.60;;;7.60;99.90;;;;;;5027202;28;20051;-68
2022/01/17 11:29:07;;;;;;;26.70;6.30;;;7.60;99.90;;;;;;5028019;28;20083;-68
2022/01/17 11:31:33;;;;;;;30.33;6.70;;;7.90;99.90;;;;;;5021500;28;20474;-68
2022/01/17 11:33:59;;;;;;;23.23;5.77;;;7.90;99.90;;;;;;5008353;28;20084;-68
2022/01/17 11:36:24;;;;;;;25.37;6.93;;;7.70;99.90;;;;;;5008382;28;20033;-68
2022/01/17 11:38:54;;;;;;;28.33;5.97;;;7.90;99.90;;;;;;5027641;28;20071;-68
2022/01/17 11:41:34;;;;;;;29.73;7.33;;;7.80;99.90;;;;;;5027752;28;20104;-70
2022/01/17 11:44:07;;;;;;;31.83;6.40;;;7.80;99.90;;;;;;5027917;28;20486;-69
2022/01/17 11:46:44;;;;;;;22.48;5.65;;;7.40;99.90;;;;;;5027279;28;20036;-69
2022/01/17 11:49:11;;;;;;;25.43;6.27;;;8.00;99.90;;;;;;5027912;28;20234;-68
2022/01/17 11:51:46;;;;;;;24.90;6.53;;;7.90;99.90;;;;;;5009776;28;20025;-70
2022/01/17 11:54:17;;;;;;;35.07;7.30;;;8.00;99.90;;;;;;5026627;28;20063;-69
2022/01/17 11:56:51;;;;;;;24.50;5.50;;;8.00;99.90;;;;;;5026681;28;20653;-70
2022/01/17 11:59:27;;;;;;;;;;;8.10;99.90;;;;;;5027678;28;20026;-70
2022/01/17 12:02:18;;;;;;;24.27;5.70;;;8.20;99.90;;;;;;5027617;28;19905;-69
2022/01/17 12:05:04;;;;;;;20.13;5.07;;;8.20;99.90;;;;;;5012676;28;20132;-73
2022/01/17 12:07:42;;;;;;;15.73;4.93;;;8.50;99.90;;;;;;5007415;28;20395;-72
2022/01/17 12:10:10;;;;;;;29.93;6.17;;;8.50;99.90;;;;;;5007077;28;20149;-69
2022/01/17 12:12:36;;;;;;;22.30;4.17;;;;;;;;;;5007579;28;20036;-69
2022/01/17 12:15:06;;;;;;;25.33;4.70;;;8.60;99.90;;;;;;5025749;28;20042;-69
2022/01/17 12:17:35;;;;;;;23.30;4.70;;;;;;;;;;5027522;28;20053;-68
2022/01/17 12:20:03;;;;;;;23.80;4.70;;;8.60;99.90;;;;;;5023802;28;20120;-68
2022/01/17 12:22:38;;;;;;;31.97;6.23;;;8.50;99.90;;;;;;5025168;28;20365;-68
2022/01/17 12:25:24;;;;;;;24.67;4.30;;;8.70;99.90;;;;;;5027879;28;20113;-68
2022/01/17 12:28:12;;;;;;;29.10;5.17;;;8.70;99.90;;;;;;5007483;28;20037;-68
2022/01/17 12:30:50;;;;;;;19.90;3.90;;;8.70;99.90;;;;;;5007395;28;20038;-68
2022/01/17 12:33:39;;;;;;;22.60;4.50;;;8.90;99.90;;;;;;5009289;28;20101;-68
2022/01/17 12:36:28;;;;;;;29.80;5.20;;;8.70;99.90;;;;;;5027197;28;20096;-69
2022/01/17 12:39:10;;;;;;;23.53;4.03;;;8.90;99.90;;;;;;5015223;28;20026;-69
2022/01/17 12:41:37;;;;;;;30.90;5.10;;;9.00;99.90;;;;;;5026708;28;20414;-69
2022/01/17 12:44:24;;;;;;;26.60;5.27;;;9.10;99.90;;;;;;5009370;28;20029;-68
2022/01/17 12:46:52;;;;;;;22.33;4.13;;;9.10;99.90;;;;;;5027008;28;20088;-68
2022/01/17 12:49:19;;;;;;;24.07;4.10;;;9.10;99.90;;;;;;5027689;28;20053;-69
2022/01/17 12:51:47;;;;;;;18.17;2.83;;;9.10;99.90;;;;;;5026709;28;20029;-68
2022/01/17 12:54:19;;;;;;;18.73;4.20;;;9.20;99.90;;;;;;5026140;28;20029;-68
2022/01/17 12:56:47;;;;;;;25.47;4.73;;;8.90;99.90;;;;;;5025869;28;20025;-68
2022/01/17 12:59:16;;;;;;;25.23;3.50;;;9.20;99.90;;;;;;5026367;28;20402;-67
2022/01/17 13:01:46;;;;;;;22.93;5.27;;;9.40;99.90;;;;;;5026200;28;20676;-67
2022/01/17 13:04:15;;;;;;;24.80;4.37;;;9.40;99.90;;;;;;5026544;28;20026;-68
2022/01/17 13:06:42;;;;;;;23.33;3.77;;;9.20;99.90;;;;;;5025852;28;20067;-67
2022/01/17 13:09:10;;;;;;;34.23;4.03;;;9.30;99.90;;;;;;5025067;28;20033;-68
2022/01/17 13:11:39;;;;;;;26.70;6.00;;;9.20;99.90;;;;;;5025628;28;20025;-68
2022/01/17 13:14:04;;;;;;;20.70;3.93;;;9.30;99.90;;;;;;5028911;28;20028;-68
2022/01/17 13:16:31;;;;;;;22.20;3.37;;;9.40;99.90;;;;;;5011923;28;20030;-68
2022/01/17 13:18:58;;;;;;;31.50;4.77;;;;;;;;;;5022967;28;20025;-68
2022/01/17 13:21:24;;;;;;;28.17;4.33;;;;;;;;;;5030145;28;20021;-67
2022/01/17 13:23:56;;;;;;;20.90;4.17;;;9.30;99.90;;;;;;5029785;28;20125;-68
2022/01/17 13:26:36;;;;;;;22.20;3.97;;;9.40;99.90;;;;;;5029019;28;20048;-68
2022/01/17 13:29:06;;;;;;;25.10;3.67;;;;;;;;;;5029225;28;20021;-68
2022/01/17 13:31:32;;;;;;;22.27;3.87;;;9.30;99.90;;;;;;5028247;28;20037;-69
2022/01/17 13:34:17;;;;;;;33.27;5.13;;;9.50;99.90;;;;;;5030520;28;20025;-68
2022/01/17 13:36:45;;;;;;;26.63;4.67;;;9.40;99.90;;;;;;5029427;28;20036;-68